Weather at Buzet Ultralightport

Public forecast

Using degrees Celsius for public forecast. Weather courtesy of forecast.io.

Closest aviation weather report (METAR) to Buzet Ultralightport

Closest report is Brussels South Charleroi Airport, 5.7 nm (10.5 km) SSE.

2024/05/25 16:50 (retrieved 33 minutes ago)

EBCI 251650Z 27006KT 230V300 9999 FEW048 18/08 Q1017 NOSIG

Closest aviation forecast (TAF) to Buzet Ultralightport

Closest forecast is Brussels South Charleroi Airport, 5.7 nm (10.5 km) SSE.

2024/05/25 12:27 (retrieved 5 hours ago)

TAF EBCI 251120Z 2512/2618 27004KT 9999 SCT035 TEMPO 2611/2617 4000 SHRA PROB30 TEMPO 2611/2617 20015G25KT 2500 TSRA SCT015 BKN030CB